Franklin, North Carolina
Current Conditions -  °F | °C
As of 5:35 AM on Sunday 21 Dec 2014 (Local Time) from KRHP Reporting Station
Haze Haze  
Wind Chill: 42°   Ceiling: 400
Heat Index: 42°   Visibility: 2.5mi
Dew Point: 42°   Wind: 3mph
Humidity: 100%   Direction: 280°W
Pressure: 30.19"   Gusts: NA
Location:  35.18°N, 83.38°W
Report Text: KRHP 211035Z AUTO 28003KT 2 1/2SM BR OVC004 05/05 A3019 RMK AO2 T00530053
Loading
Personal Weather Stations






























Interactive Weather Map New forecast layout! Learn more

10-Day Weather Forecast

Advertisements
Track Severe Weather on mobile